Time;durP1;ratioP1;P1;durP2;ratioP2;P2;SDS_P1;SDS_P2;PMS_P1;PMS_P2;Temp;Humidity;BMP_temperature;BMP_pressure;BME280_temperature;BME280_humidity;BME280_pressure;Samples;Min_cycle;Max_cycle;Signal;HPM_P1;HPM_P2
2021/03/16 00:02:02;;;;;;;3.85;2.65;;;2.90;99.90;;;;;;4957702;28;20132;-89
2021/03/16 00:04:29;;;;;;;3.30;2.20;;;3.00;99.90;;;;;;4958206;28;20688;-90
2021/03/16 00:07:18;;;;;;;2.40;2.10;;;3.00;99.90;;;;;;4969422;28;20055;-90
2021/03/16 00:09:45;;;;;;;6.70;3.25;;;3.00;99.90;;;;;;4957768;28;20054;-89
2021/03/16 00:12:12;;;;;;;8.23;2.70;;;3.00;99.90;;;;;;4955843;28;20133;-89
2021/03/16 00:14:38;;;;;;;2.75;2.25;;;3.00;99.90;;;;;;4959774;28;20574;-89
2021/03/16 00:17:05;;;;;;;6.60;2.60;;;3.00;99.90;;;;;;4958546;28;20729;-89
2021/03/16 00:19:32;;;;;;;5.20;2.53;;;3.00;99.90;;;;;;4956608;28;20055;-89
2021/03/16 00:21:58;;;;;;;6.07;2.60;;;2.90;99.90;;;;;;4954789;28;20059;-89
2021/03/16 00:24:25;;;;;;;4.85;2.17;;;2.90;99.90;;;;;;4956518;28;20054;-89
2021/03/16 00:26:51;;;;;;;6.63;3.10;;;2.90;99.90;;;;;;4950722;28;20087;-89
2021/03/16 00:29:18;;;;;;;6.35;3.38;;;2.90;99.90;;;;;;4950955;28;20519;-89
2021/03/16 00:31:44;;;;;;;5.60;3.10;;;2.90;99.90;;;;;;4958008;28;20146;-89
2021/03/16 00:34:11;;;;;;;4.60;3.55;;;2.90;99.90;;;;;;4965469;28;20125;-89
2021/03/16 00:36:38;;;;;;;4.90;3.42;;;2.90;99.90;;;;;;4958342;28;20043;-89
2021/03/16 00:39:05;;;;;;;4.38;2.70;;;2.90;99.90;;;;;;4958073;28;20043;-89
2021/03/16 00:41:32;;;;;;;7.03;3.90;;;2.90;99.90;;;;;;4955504;28;20055;-89
2021/03/16 00:44:00;;;;;;;4.28;3.65;;;2.90;99.90;;;;;;4956376;28;20053;-89
2021/03/16 00:46:28;;;;;;;6.25;3.25;;;2.90;99.90;;;;;;4968630;28;20062;-89
2021/03/16 00:48:55;;;;;;;5.15;3.55;;;2.90;99.90;;;;;;4957349;28;20049;-88
2021/03/16 00:51:22;;;;;;;5.88;3.70;;;2.90;99.90;;;;;;4942589;28;20475;-89
2021/03/16 00:53:48;;;;;;;7.55;3.92;;;2.90;99.90;;;;;;4951761;28;20087;-89
2021/03/16 00:56:16;;;;;;;4.90;4.10;;;2.90;99.90;;;;;;4967473;28;20043;-89
2021/03/16 00:58:44;;;;;;;5.47;3.33;;;2.90;99.90;;;;;;4950097;28;20507;-89
2021/03/16 01:01:10;;;;;;;5.35;3.70;;;2.90;99.90;;;;;;4937796;28;20664;-90
2021/03/16 01:03:37;;;;;;;8.52;3.55;;;2.90;99.90;;;;;;4953092;28;20082;-89
2021/03/16 01:06:04;;;;;;;5.57;4.03;;;2.90;99.90;;;;;;4952594;28;20056;-90
2021/03/16 01:08:31;;;;;;;7.90;4.47;;;2.90;99.90;;;;;;4956816;28;20064;-90
2021/03/16 01:11:01;;;;;;;5.60;3.30;;;2.90;99.90;;;;;;4962995;28;20053;-90
2021/03/16 01:13:28;;;;;;;3.97;3.57;;;2.90;99.90;;;;;;4960252;28;20499;-89
2021/03/16 01:15:54;;;;;;;9.70;4.38;;;2.90;99.90;;;;;;4960207;28;21164;-89
2021/03/16 01:18:21;;;;;;;4.03;3.28;;;2.90;99.90;;;;;;4961134;28;20058;-89
2021/03/16 01:20:48;;;;;;;9.75;4.00;;;2.90;99.90;;;;;;4961817;28;20082;-89
2021/03/16 01:23:15;;;;;;;5.43;3.90;;;2.90;99.90;;;;;;4962919;28;20055;-89
2021/03/16 01:26:02;;;;;;;3.65;2.92;;;2.90;99.90;;;;;;4960391;28;20043;-89
2021/03/16 01:28:28;;;;;;;3.65;3.33;;;2.90;99.90;;;;;;4969918;28;20141;-89
2021/03/16 01:30:56;;;;;;;7.07;3.25;;;2.90;99.90;;;;;;4948204;28;20057;-89
2021/03/16 01:33:24;;;;;;;3.88;3.30;;;2.90;99.90;;;;;;4971799;28;20452;-89
2021/03/16 01:35:50;;;;;;;4.40;3.38;;;2.80;99.90;;;;;;4959044;28;20046;-88
2021/03/16 01:38:17;;;;;;;5.22;2.65;;;2.80;99.90;;;;;;4946549;28;20058;-89
2021/03/16 01:40:44;;;;;;;5.15;3.47;;;2.70;99.90;;;;;;4953757;28;20400;-89
2021/03/16 01:43:13;;;;;;;4.47;3.58;;;2.70;99.90;;;;;;4964184;28;20046;-89
2021/03/16 01:45:41;;;;;;;4.00;3.45;;;2.80;99.90;;;;;;4975933;28;20089;-89
2021/03/16 01:48:09;;;;;;;3.42;3.00;;;2.70;99.90;;;;;;4959463;28;21635;-89
2021/03/16 01:50:36;;;;;;;6.18;3.90;;;2.70;99.90;;;;;;4962037;28;20063;-89
2021/03/16 01:53:04;;;;;;;6.45;3.83;;;2.60;99.90;;;;;;4974056;28;20047;-89
2021/03/16 01:55:31;;;;;;;5.85;3.42;;;2.70;99.90;;;;;;4962527;28;20050;-89
2021/03/16 01:57:58;;;;;;;4.32;3.47;;;2.60;99.90;;;;;;4960432;28;20489;-90
2021/03/16 02:00:44;;;;;;;4.82;3.55;;;2.60;99.90;;;;;;4958375;28;20054;-90
2021/03/16 02:03:30;;;;;;;6.25;3.20;;;2.60;99.90;;;;;;4962798;28;20058;-90
2021/03/16 02:06:51;;;;;;;4.55;3.22;;;2.60;99.90;;;;;;4959516;28;20129;-90
2021/03/16 02:09:56;;;;;;;7.93;4.40;;;2.60;99.90;;;;;;4931132;28;20668;-89
2021/03/16 02:13:06;;;;;;;7.35;4.05;;;2.60;99.90;;;;;;4961111;28;20193;-90
2021/03/16 02:15:57;;;;;;;7.82;4.07;;;2.60;99.90;;;;;;4960508;28;20193;-90
2021/03/16 02:18:49;;;;;;;7.45;4.65;;;2.60;99.90;;;;;;4954794;28;20073;-90
2021/03/16 02:21:35;;;;;;;6.57;3.75;;;2.60;99.90;;;;;;4941930;28;20061;-90
2021/03/16 02:24:55;;;;;;;5.68;3.67;;;2.60;99.90;;;;;;4957151;28;20073;-89
2021/03/16 02:28:18;;;;;;;6.43;4.57;;;2.60;99.90;;;;;;4957459;28;20124;-90
2021/03/16 02:31:06;;;;;;;7.20;4.93;;;2.60;99.90;;;;;;4950498;28;20121;-89
2021/03/16 02:33:54;;;;;;;8.32;4.80;;;2.60;99.90;;;;;;4955918;28;20156;-90
2021/03/16 02:36:41;;;;;;;8.00;4.78;;;2.60;99.90;;;;;;4961830;28;20053;-89
2021/03/16 02:39:27;;;;;;;10.48;5.43;;;2.60;99.90;;;;;;4959967;28;20050;-89
2021/03/16 02:42:14;;;;;;;6.65;4.05;;;2.60;99.90;;;;;;4960530;28;20062;-89
2021/03/16 02:45:02;;;;;;;7.88;4.75;;;2.60;99.90;;;;;;4961870;28;20264;-90
2021/03/16 02:47:49;;;;;;;7.50;5.57;;;2.60;99.90;;;;;;4960476;28;20073;-90
2021/03/16 02:50:36;;;;;;;8.05;4.90;;;2.60;99.90;;;;;;4948060;28;20546;-89
2021/03/16 02:53:21;;;;;;;6.20;4.32;;;2.70;99.90;;;;;;4958390;28;20058;-89
2021/03/16 02:56:08;;;;;;;7.10;4.57;;;2.60;99.90;;;;;;4957797;28;20093;-89
2021/03/16 02:58:56;;;;;;;10.05;5.32;;;2.60;99.90;;;;;;4961442;28;20149;-89
2021/03/16 03:01:42;;;;;;;9.25;4.20;;;2.60;99.90;;;;;;4957544;28;20061;-89
2021/03/16 03:04:29;;;;;;;5.05;3.28;;;2.70;99.90;;;;;;4960039;28;20161;-89
2021/03/16 03:07:16;;;;;;;6.13;3.90;;;2.70;99.90;;;;;;4960939;28;20049;-89
2021/03/16 03:10:02;;;;;;;8.38;4.10;;;2.70;99.90;;;;;;4961422;28;20093;-89
2021/03/16 03:12:47;;;;;;;6.47;3.95;;;2.60;99.90;;;;;;4968719;28;20058;-89
2021/03/16 03:15:32;;;;;;;6.00;3.65;;;2.70;99.90;;;;;;4959433;28;20116;-89
2021/03/16 03:18:17;;;;;;;6.80;4.25;;;2.70;99.90;;;;;;4940580;28;20058;-89
2021/03/16 03:21:11;;;;;;;8.23;4.53;;;2.70;99.90;;;;;;4958246;28;20805;-89
2021/03/16 03:24:03;;;;;;;6.30;3.22;;;2.70;99.90;;;;;;4956826;28;20128;-89
2021/03/16 03:26:59;;;;;;;3.50;2.80;;;2.70;99.90;;;;;;4957751;28;20057;-89
2021/03/16 03:29:45;;;;;;;6.00;3.58;;;2.70;99.90;;;;;;4958683;28;20190;-89
2021/03/16 03:32:34;;;;;;;5.18;3.38;;;2.70;99.90;;;;;;4956945;28;20159;-89
2021/03/16 03:35:20;;;;;;;4.97;3.92;;;2.70;99.90;;;;;;4969710;28;20737;-89
2021/03/16 03:38:05;;;;;;;6.18;4.00;;;2.80;99.90;;;;;;4956832;28;20117;-89
2021/03/16 03:40:52;;;;;;;4.78;3.13;;;2.70;99.90;;;;;;4957406;28;20050;-89
2021/03/16 03:43:38;;;;;;;7.00;3.80;;;2.70;99.90;;;;;;4960245;28;20805;-88
2021/03/16 03:46:23;;;;;;;7.28;3.97;;;2.70;99.90;;;;;;4944201;28;20050;-89
2021/03/16 03:49:10;;;;;;;7.32;5.32;;;2.70;99.90;;;;;;4958320;28;20519;-88
2021/03/16 03:51:57;;;;;;;7.78;4.72;;;2.70;99.90;;;;;;4958208;28;20133;-89
2021/03/16 03:54:44;;;;;;;8.40;4.35;;;2.70;99.90;;;;;;4947016;28;20451;-89
2021/03/16 03:57:30;;;;;;;8.68;5.18;;;2.70;99.90;;;;;;4958534;28;20103;-89
2021/03/16 04:00:17;;;;;;;5.97;4.15;;;2.60;99.90;;;;;;4957536;28;20074;-89
2021/03/16 04:03:04;;;;;;;8.93;5.15;;;2.60;99.90;;;;;;4947799;28;20497;-89
2021/03/16 04:05:52;;;;;;;7.93;4.43;;;2.70;99.90;;;;;;4955246;28;20065;-89
2021/03/16 04:08:38;;;;;;;8.80;4.95;;;2.60;99.90;;;;;;4950062;28;20059;-89
2021/03/16 04:11:25;;;;;;;8.13;5.32;;;2.70;99.90;;;;;;4951527;28;20058;-89
2021/03/16 04:14:11;;;;;;;10.10;5.93;;;2.60;99.90;;;;;;4952179;28;20061;-89
2021/03/16 04:16:57;;;;;;;8.73;5.65;;;2.60;99.90;;;;;;4957498;28;20062;-89
2021/03/16 04:19:43;;;;;;;8.57;4.90;;;2.60;99.90;;;;;;4970864;28;20558;-89
2021/03/16 04:22:28;;;;;;;10.00;6.05;;;2.60;99.90;;;;;;4955747;28;20058;-89
2021/03/16 04:25:14;;;;;;;8.23;5.80;;;2.60;99.90;;;;;;4957254;28;20194;-89
2021/03/16 04:27:59;;;;;;;12.38;6.88;;;2.60;99.90;;;;;;4955601;28;21028;-89
2021/03/16 04:30:44;;;;;;;12.70;6.72;;;2.60;99.90;;;;;;4958934;28;20050;-89
2021/03/16 04:33:29;;;;;;;12.10;6.43;;;2.50;99.90;;;;;;4958790;28;20195;-89
2021/03/16 04:36:14;;;;;;;13.70;7.13;;;2.50;99.90;;;;;;4956194;28;20070;-89
2021/03/16 04:38:59;;;;;;;17.42;6.80;;;2.50;99.90;;;;;;4950277;28;20047;-89
2021/03/16 04:41:46;;;;;;;12.70;6.85;;;2.60;99.90;;;;;;4953520;28;20125;-89
2021/03/16 04:44:32;;;;;;;16.27;6.80;;;2.60;99.90;;;;;;4961054;28;20714;-89
2021/03/16 04:47:16;;;;;;;14.77;7.75;;;2.60;99.90;;;;;;4959409;28;20050;-89
2021/03/16 04:50:03;;;;;;;15.38;7.43;;;2.60;99.90;;;;;;4960176;28;20404;-89
2021/03/16 04:52:50;;;;;;;14.00;6.88;;;2.60;99.90;;;;;;4959418;28;20062;-89
2021/03/16 04:55:35;;;;;;;24.55;8.85;;;2.60;99.90;;;;;;4962028;28;20046;-88
2021/03/16 04:58:20;;;;;;;15.30;8.48;;;2.60;99.90;;;;;;4960829;28;20248;-89
2021/03/16 05:01:06;;;;;;;17.52;8.27;;;2.70;99.90;;;;;;4975157;28;20152;-89
2021/03/16 05:03:51;;;;;;;23.45;8.50;;;2.60;99.90;;;;;;4960696;28;20053;-89
2021/03/16 05:06:36;;;;;;;17.58;8.95;;;2.70;99.90;;;;;;4962223;28;20057;-89
2021/03/16 05:09:21;;;;;;;22.48;9.32;;;2.70;99.90;;;;;;4962270;28;20053;-89
2021/03/16 05:12:07;;;;;;;16.45;7.75;;;2.70;99.90;;;;;;4959954;28;20097;-88
2021/03/16 05:14:52;;;;;;;16.60;8.63;;;2.70;99.90;;;;;;4960539;28;21334;-88
2021/03/16 05:17:37;;;;;;;21.17;8.15;;;2.70;99.90;;;;;;4959898;28;20193;-89
2021/03/16 05:20:22;;;;;;;18.23;7.25;;;2.70;99.90;;;;;;4960783;28;20057;-88
2021/03/16 05:23:07;;;;;;;18.52;8.50;;;2.80;99.90;;;;;;4956325;28;20128;-89
2021/03/16 05:25:52;;;;;;;19.52;10.25;;;2.80;99.90;;;;;;4956407;28;20086;-89
2021/03/16 05:28:38;;;;;;;15.88;8.68;;;2.80;99.90;;;;;;4960914;28;20057;-88
2021/03/16 05:31:23;;;;;;;21.15;8.98;;;2.80;99.90;;;;;;4958721;28;20054;-88
2021/03/16 05:34:08;;;;;;;20.10;8.90;;;2.80;99.90;;;;;;4954084;28;20049;-88
2021/03/16 05:36:53;;;;;;;19.33;9.65;;;2.80;99.90;;;;;;4959881;28;20046;-89
2021/03/16 05:39:38;;;;;;;18.90;9.20;;;2.80;99.90;;;;;;4962018;28;20049;-88
2021/03/16 05:42:34;;;;;;;16.05;10.23;;;2.90;99.90;;;;;;4959812;28;20546;-89
2021/03/16 05:45:19;;;;;;;16.58;7.88;;;2.90;99.90;;;;;;4959951;28;20054;-89
2021/03/16 05:48:08;;;;;;;12.38;7.28;;;2.80;99.90;;;;;;4958923;28;20054;-89
2021/03/16 05:50:54;;;;;;;10.43;6.67;;;2.80;99.90;;;;;;4958527;28;20061;-89
2021/03/16 05:53:39;;;;;;;10.35;6.55;;;2.90;99.90;;;;;;4959880;28;20300;-89
2021/03/16 05:56:25;;;;;;;13.57;7.22;;;2.90;99.90;;;;;;4968545;28;20138;-89
2021/03/16 05:59:10;;;;;;;12.82;7.10;;;2.90;99.90;;;;;;4971351;28;20117;-89
2021/03/16 06:01:55;;;;;;;13.82;7.50;;;2.90;99.90;;;;;;4954758;28;20062;-88
2021/03/16 06:04:42;;;;;;;11.57;7.45;;;2.90;99.90;;;;;;4960344;28;20042;-89
2021/03/16 06:07:27;;;;;;;11.70;7.45;;;2.90;99.90;;;;;;4960821;28;20137;-88
2021/03/16 06:10:16;;;;;;;10.90;6.63;;;2.90;99.90;;;;;;4972115;28;20058;-89
2021/03/16 06:13:10;;;;;;;12.35;7.15;;;3.00;99.90;;;;;;4938401;28;20133;-88
2021/03/16 06:15:59;;;;;;;8.85;7.50;;;2.90;99.90;;;;;;4954020;28;20065;-88
2021/03/16 06:18:47;;;;;;;11.77;7.22;;;2.90;99.90;;;;;;4959297;28;20069;-88
2021/03/16 06:21:33;;;;;;;8.75;7.00;;;2.90;99.90;;;;;;4959774;28;20062;-88
2021/03/16 06:24:18;;;;;;;8.38;6.88;;;3.00;99.90;;;;;;4953666;28;20042;-88
2021/03/16 06:27:03;;;;;;;10.27;7.15;;;3.00;99.90;;;;;;4955439;28;20492;-87
2021/03/16 06:30:02;;;;;;;9.63;6.75;;;3.00;99.90;;;;;;4956877;28;20045;-88
2021/03/16 06:32:48;;;;;;;7.72;6.78;;;3.00;99.90;;;;;;4959300;28;20077;-88
2021/03/16 06:35:34;;;;;;;11.07;7.50;;;3.00;99.90;;;;;;4962746;28;20049;-89
2021/03/16 06:38:19;;;;;;;11.93;8.13;;;3.10;99.90;;;;;;4957106;28;20054;-88
2021/03/16 06:41:16;;;;;;;10.88;7.53;;;3.10;99.90;;;;;;4968568;28;20097;-89
2021/03/16 06:44:04;;;;;;;13.18;8.10;;;3.10;99.90;;;;;;4958760;28;20211;-88
2021/03/16 06:46:54;;;;;;;14.25;9.43;;;3.20;99.90;;;;;;4959728;28;20082;-87
2021/03/16 06:49:40;;;;;;;10.90;8.00;;;3.20;99.90;;;;;;4960557;28;20054;-88
2021/03/16 06:52:26;;;;;;;15.57;9.88;;;3.20;99.90;;;;;;4943889;28;20062;-87
2021/03/16 06:55:13;;;;;;;13.88;9.93;;;3.30;99.90;;;;;;4957358;28;20054;-88
2021/03/16 06:58:05;;;;;;;12.82;9.50;;;3.30;99.90;;;;;;4958992;28;21299;-85
2021/03/16 07:01:08;;;;;;;12.00;9.35;;;3.30;99.90;;;;;;4958204;28;20065;-86
2021/03/16 07:03:55;;;;;;;11.85;8.75;;;3.40;99.90;;;;;;4952533;28;20133;-86
2021/03/16 07:06:44;;;;;;;13.15;9.15;;;3.40;99.90;;;;;;4954807;28;20050;-86
2021/03/16 07:09:31;;;;;;;12.65;9.07;;;3.40;99.90;;;;;;4958078;28;20594;-86
2021/03/16 07:12:18;;;;;;;7.78;6.63;;;3.50;99.90;;;;;;4958257;28;20097;-86
2021/03/16 07:15:05;;;;;;;6.13;5.18;;;3.50;99.90;;;;;;4948702;28;20124;-86
2021/03/16 07:17:51;;;;;;;8.32;5.88;;;3.50;99.90;;;;;;4955549;28;20058;-86
2021/03/16 07:20:37;;;;;;;5.50;4.30;;;3.50;99.90;;;;;;4961343;28;20160;-85
2021/03/16 07:23:25;;;;;;;7.97;4.90;;;3.40;99.90;;;;;;4957885;28;20121;-85
2021/03/16 07:26:11;;;;;;;5.20;4.70;;;3.40;99.90;;;;;;4957331;28;20061;-85
2021/03/16 07:28:56;;;;;;;8.98;5.70;;;3.50;99.90;;;;;;4959102;28;20046;-85
2021/03/16 07:31:43;;;;;;;6.72;5.50;;;3.50;99.90;;;;;;4955607;28;20479;-86
2021/03/16 07:34:29;;;;;;;6.47;4.97;;;3.50;99.90;;;;;;4954761;28;20062;-86
2021/03/16 07:37:14;;;;;;;9.32;6.93;;;3.50;99.90;;;;;;4956937;28;20074;-86
2021/03/16 07:40:02;;;;;;;7.18;5.43;;;3.50;99.90;;;;;;4957708;28;20070;-87
2021/03/16 07:42:49;;;;;;;7.45;4.80;;;3.60;99.90;;;;;;4957717;28;20062;-87
2021/03/16 07:45:35;;;;;;;13.75;8.40;;;3.60;99.90;;;;;;4958423;28;20696;-86
2021/03/16 07:48:20;;;;;;;11.48;6.68;;;3.70;99.90;;;;;;4954398;28;20050;-86
2021/03/16 07:51:15;;;;;;;7.07;5.00;;;3.80;99.90;;;;;;4957306;28;20082;-87
2021/03/16 07:54:05;;;;;;;9.35;5.28;;;3.80;99.90;;;;;;4956277;28;20058;-86
2021/03/16 07:56:58;;;;;;;6.68;4.55;;;3.90;99.90;;;;;;4959761;28;20193;-86
2021/03/16 07:59:43;;;;;;;5.40;4.57;;;4.10;99.90;;;;;;4955206;28;20109;-86
2021/03/16 08:02:29;;;;;;;8.02;4.13;;;4.20;99.90;;;;;;4935185;28;20214;-86
2021/03/16 08:05:16;;;;;;;6.10;4.70;;;4.30;99.90;;;;;;4964961;28;20061;-86
2021/03/16 08:08:18;;;;;;;4.97;4.53;;;4.40;99.90;;;;;;4957567;28;20053;-85
2021/03/16 08:11:08;;;;;;;5.63;3.70;;;4.40;99.90;;;;;;4955864;28;20129;-86
2021/03/16 08:13:58;;;;;;;6.22;3.60;;;4.40;99.90;;;;;;4957084;28;20149;-86
2021/03/16 08:16:44;;;;;;;4.30;3.55;;;4.30;99.90;;;;;;4956053;28;20693;-86
2021/03/16 08:19:38;;;;;;;4.93;3.88;;;4.30;99.90;;;;;;4956834;28;21422;-86
2021/03/16 08:22:28;;;;;;;5.45;4.72;;;4.30;99.90;;;;;;4947237;28;20073;-85
2021/03/16 08:25:13;;;;;;;3.55;3.25;;;4.30;99.90;;;;;;4956011;28;20066;-85
2021/03/16 08:28:06;;;;;;;5.20;3.05;;;4.30;99.90;;;;;;4937664;28;20062;-86
2021/03/16 08:30:52;;;;;;;4.03;3.13;;;4.40;99.90;;;;;;4939217;28;20062;-85
2021/03/16 08:33:39;;;;;;;5.07;3.58;;;4.50;99.90;;;;;;4949478;28;20069;-86
2021/03/16 08:36:26;;;;;;;3.78;2.60;;;4.60;99.90;;;;;;4952801;28;20046;-85
2021/03/16 08:39:20;;;;;;;3.83;2.45;;;4.70;99.90;;;;;;4957428;28;20523;-85
2021/03/16 08:42:05;;;;;;;3.90;2.47;;;4.70;99.90;;;;;;4955141;28;20050;-85
2021/03/16 08:44:51;;;;;;;4.68;3.20;;;4.70;99.90;;;;;;4943629;28;20055;-85
2021/03/16 08:47:37;;;;;;;3.35;2.53;;;4.70;99.90;;;;;;4951162;28;20131;-85
2021/03/16 08:50:24;;;;;;;3.80;2.67;;;4.60;99.90;;;;;;4953747;28;20082;-85
2021/03/16 08:53:14;;;;;;;5.35;2.88;;;4.60;99.90;;;;;;4959366;28;20105;-86
2021/03/16 08:55:59;;;;;;;5.32;2.75;;;4.70;99.90;;;;;;4956218;28;20572;-85
2021/03/16 08:58:46;;;;;;;3.08;2.78;;;4.80;99.90;;;;;;4957274;28;20050;-85
2021/03/16 09:01:32;;;;;;;4.55;3.05;;;4.80;99.90;;;;;;4956710;28;20050;-85
2021/03/16 09:04:19;;;;;;;4.70;2.63;;;4.90;99.90;;;;;;4954832;28;20174;-85
2021/03/16 09:07:05;;;;;;;3.28;2.40;;;5.00;99.90;;;;;;4971065;28;20129;-84
2021/03/16 09:09:51;;;;;;;3.13;1.92;;;5.00;99.90;;;;;;4957319;28;20411;-85
2021/03/16 09:12:41;;;;;;;3.30;2.47;;;5.10;99.90;;;;;;4958310;28;20046;-84
2021/03/16 09:15:35;;;;;;;8.27;3.22;;;5.10;99.90;;;;;;4955219;28;20053;-84
2021/03/16 09:18:22;;;;;;;5.15;2.85;;;5.10;99.90;;;;;;4935739;28;20737;-85
2021/03/16 09:21:07;;;;;;;3.03;2.72;;;4.80;99.90;;;;;;4940590;28;20062;-85
2021/03/16 09:23:52;;;;;;;4.50;3.33;;;4.50;99.90;;;;;;4958569;28;20069;-86
2021/03/16 09:26:41;;;;;;;4.00;3.70;;;4.50;99.90;;;;;;4958286;28;20484;-85
2021/03/16 09:29:33;;;;;;;3.65;2.42;;;4.60;99.90;;;;;;4958172;28;20053;-85
2021/03/16 09:32:34;;;;;;;4.38;2.50;;;4.60;99.90;;;;;;4956973;28;20062;-85
2021/03/16 09:35:21;;;;;;;4.38;2.65;;;4.60;99.90;;;;;;4959716;28;20066;-84
2021/03/16 09:38:07;;;;;;;2.92;2.72;;;4.50;99.90;;;;;;4960132;28;20077;-84
2021/03/16 09:40:40;;;;;;;4.75;2.45;;;4.50;99.90;;;;;;4960594;28;20059;-84
2021/03/16 09:43:19;;;;;;;3.45;3.15;;;4.40;99.90;;;;;;4958094;28;20050;-84
2021/03/16 09:46:07;;;;;;;7.35;3.25;;;4.40;99.90;;;;;;4958226;28;20353;-83
2021/03/16 09:48:37;;;;;;;3.45;2.22;;;4.40;99.90;;;;;;4954873;28;20737;-84
2021/03/16 09:51:30;;;;;;;6.57;2.90;;;4.50;99.90;;;;;;4959321;28;20134;-84
2021/03/16 09:53:58;;;;;;;4.30;2.20;;;4.40;99.90;;;;;;4968274;28;20121;-83
2021/03/16 09:56:29;;;;;;;4.10;3.33;;;4.50;99.90;;;;;;4961337;28;20047;-83
2021/03/16 09:59:02;;;;;;;5.45;3.30;;;4.60;99.90;;;;;;4959747;28;20043;-83
2021/03/16 10:01:39;;;;;;;3.08;2.55;;;4.60;99.90;;;;;;4967103;28;20054;-84
2021/03/16 10:04:12;;;;;;;2.50;1.63;;;4.50;99.90;;;;;;4960575;28;20050;-84
2021/03/16 10:06:42;;;;;;;2.33;2.13;;;4.50;99.90;;;;;;4962994;28;20138;-83
2021/03/16 10:09:20;;;;;;;8.43;3.28;;;4.60;99.90;;;;;;4962707;28;20366;-83
2021/03/16 10:11:49;;;;;;;4.65;2.30;;;4.60;99.90;;;;;;4960438;28;20043;-84
2021/03/16 10:14:29;;;;;;;4.97;2.08;;;4.50;99.90;;;;;;4960740;28;20089;-84
2021/03/16 10:16:56;;;;;;;4.85;3.65;;;4.40;99.90;;;;;;4958457;28;20050;-83
2021/03/16 10:19:24;;;;;;;5.57;2.38;;;4.50;99.90;;;;;;4957101;28;20571;-83
2021/03/16 10:21:51;;;;;;;6.22;2.58;;;4.50;99.90;;;;;;4957811;28;20063;-83
2021/03/16 10:24:27;;;;;;;6.60;2.92;;;4.40;99.90;;;;;;4972764;28;20063;-83
2021/03/16 10:27:01;;;;;;;8.93;3.80;;;4.30;99.90;;;;;;4954768;28;20082;-83
2021/03/16 10:29:27;;;;;;;4.35;2.45;;;4.30;99.90;;;;;;4959460;28;20085;-83
2021/03/16 10:31:54;;;;;;;4.28;1.90;;;4.20;99.90;;;;;;4962351;28;20042;-83
2021/03/16 10:34:21;;;;;;;11.02;2.40;;;4.10;99.90;;;;;;4961303;28;20054;-83
2021/03/16 10:36:47;;;;;;;2.65;1.60;;;4.10;99.90;;;;;;4959569;28;20058;-83
2021/03/16 10:39:14;;;;;;;10.05;2.58;;;4.10;99.90;;;;;;4957212;28;20061;-83
2021/03/16 10:41:41;;;;;;;4.68;2.42;;;4.20;99.90;;;;;;4958356;28;20058;-83
2021/03/16 10:44:07;;;;;;;9.93;3.45;;;4.20;99.90;;;;;;4971773;28;20042;-83
2021/03/16 10:46:35;;;;;;;5.95;3.08;;;4.20;99.90;;;;;;4961411;28;20073;-83
2021/03/16 10:49:02;;;;;;;5.70;3.00;;;4.30;99.90;;;;;;4974331;28;20063;-83
2021/03/16 10:51:33;;;;;;;6.72;2.72;;;4.20;99.90;;;;;;4956448;28;20065;-83
2021/03/16 10:53:59;;;;;;;5.72;3.55;;;4.20;99.90;;;;;;4956999;28;20064;-83
2021/03/16 10:56:26;;;;;;;2.80;2.05;;;4.10;99.90;;;;;;4958757;28;20054;-84
2021/03/16 10:58:52;;;;;;;9.75;2.13;;;4.20;99.90;;;;;;4971249;28;20051;-86
2021/03/16 11:01:19;;;;;;;6.70;3.88;;;4.20;99.90;;;;;;4959886;28;20042;-84
2021/03/16 11:03:45;;;;;;;3.60;2.00;;;4.10;99.90;;;;;;4959543;28;20050;-85
2021/03/16 11:06:12;;;;;;;3.30;2.78;;;4.10;99.90;;;;;;4957240;28;20098;-85
2021/03/16 11:08:38;;;;;;;3.85;1.90;;;4.10;99.90;;;;;;4958131;28;20058;-85
2021/03/16 11:11:05;;;;;;;3.45;1.70;;;4.20;99.90;;;;;;4958040;28;20049;-85
2021/03/16 11:13:31;;;;;;;6.32;3.15;;;4.20;99.90;;;;;;4959651;28;20418;-85
2021/03/16 11:15:58;;;;;;;8.80;4.32;;;4.30;99.90;;;;;;4960655;28;20051;-85
2021/03/16 11:18:25;;;;;;;8.45;2.75;;;4.20;99.90;;;;;;4957073;28;20074;-85
2021/03/16 11:20:52;;;;;;;4.03;1.80;;;4.00;99.90;;;;;;4961803;28;20078;-86
2021/03/16 11:23:18;;;;;;;7.05;3.47;;;4.00;99.90;;;;;;4966041;28;20267;-86
2021/03/16 11:25:45;;;;;;;6.68;2.60;;;4.00;99.90;;;;;;4960778;28;20051;-85
2021/03/16 11:28:12;;;;;;;4.00;1.45;;;4.10;99.90;;;;;;4959177;28;20062;-85
2021/03/16 11:30:38;;;;;;;4.28;1.73;;;4.10;99.90;;;;;;4959072;28;20054;-85
2021/03/16 11:33:05;;;;;;;4.32;2.25;;;3.90;99.90;;;;;;4958407;28;20058;-85
2021/03/16 11:35:50;;;;;;;17.33;4.53;;;3.90;99.90;;;;;;4957019;28;20056;-85
2021/03/16 11:38:35;;;;;;;4.50;2.45;;;3.80;99.90;;;;;;4959212;28;20050;-85
2021/03/16 11:41:20;;;;;;;7.20;2.20;;;3.80;99.90;;;;;;4960365;28;20057;-85
2021/03/16 11:44:05;;;;;;;3.25;2.15;;;3.90;99.90;;;;;;4954233;28;20078;-85
2021/03/16 11:46:50;;;;;;;3.92;2.00;;;3.80;99.90;;;;;;4960031;28;20644;-85
2021/03/16 11:49:36;;;;;;;11.98;2.40;;;3.70;99.90;;;;;;4959243;28;20054;-85
2021/03/16 11:52:22;;;;;;;8.18;2.00;;;3.60;99.90;;;;;;4956200;28;20539;-85
2021/03/16 11:55:08;;;;;;;10.30;2.72;;;3.60;99.90;;;;;;4970640;28;20096;-85
2021/03/16 11:57:53;;;;;;;5.15;2.25;;;3.50;99.90;;;;;;4955658;28;20101;-85
2021/03/16 12:00:38;;;;;;;7.38;2.58;;;3.40;99.90;;;;;;4960350;28;20049;-86
2021/03/16 12:03:24;;;;;;;4.20;2.28;;;3.40;99.90;;;;;;4953081;28;20205;-85
2021/03/16 12:06:10;;;;;;;7.95;2.28;;;3.30;99.90;;;;;;4956649;28;20407;-84
2021/03/16 12:08:55;;;;;;;5.53;2.33;;;3.30;99.90;;;;;;4953606;28;20080;-85
2021/03/16 12:11:41;;;;;;;10.25;3.67;;;3.50;99.90;;;;;;4955945;28;20057;-85
2021/03/16 12:14:27;;;;;;;12.10;2.85;;;3.50;99.90;;;;;;4956853;28;20046;-85
2021/03/16 12:17:14;;;;;;;5.25;2.65;;;3.50;99.90;;;;;;4956847;28;20054;-86
2021/03/16 12:19:59;;;;;;;8.00;2.65;;;3.20;99.90;;;;;;4956582;28;20172;-85
2021/03/16 12:22:44;;;;;;;5.38;2.60;;;3.00;99.90;;;;;;4955794;28;20058;-85
2021/03/16 12:25:29;;;;;;;6.18;2.78;;;2.90;99.90;;;;;;4955038;28;20058;-85
2021/03/16 12:28:15;;;;;;;3.22;2.30;;;3.00;99.90;;;;;;4956901;28;20101;-86
2021/03/16 12:31:00;;;;;;;10.75;4.47;;;3.00;99.90;;;;;;4958279;28;20097;-85
2021/03/16 12:33:46;;;;;;;7.43;2.97;;;3.10;99.90;;;;;;4969737;28;20181;-85
2021/03/16 12:36:31;;;;;;;5.85;2.58;;;3.20;99.90;;;;;;4956268;28;20464;-86
2021/03/16 12:39:17;;;;;;;18.02;4.60;;;3.00;99.90;;;;;;4956617;28;20058;-85
2021/03/16 12:42:04;;;;;;;4.35;2.70;;;3.00;99.90;;;;;;4957201;28;20046;-85
2021/03/16 12:44:49;;;;;;;4.05;3.15;;;3.00;99.90;;;;;;4957925;28;20213;-85
2021/03/16 12:47:34;;;;;;;3.80;2.72;;;2.90;99.90;;;;;;4958637;28;20546;-85
2021/03/16 12:50:19;;;;;;;9.45;2.72;;;2.80;99.90;;;;;;4956266;28;20145;-85
2021/03/16 12:53:05;;;;;;;8.07;3.33;;;2.90;99.90;;;;;;4959160;28;20049;-86
2021/03/16 12:55:50;;;;;;;11.45;3.55;;;2.70;99.90;;;;;;4955614;28;21112;-86
2021/03/16 12:58:35;;;;;;;5.10;3.00;;;2.70;99.90;;;;;;4954329;28;20062;-85
2021/03/16 13:01:20;;;;;;;8.63;2.85;;;2.70;99.90;;;;;;4959070;28;20065;-86
2021/03/16 13:04:06;;;;;;;11.82;3.78;;;2.70;99.90;;;;;;4957588;28;20053;-85
2021/03/16 13:06:51;;;;;;;6.32;3.00;;;2.80;99.90;;;;;;4971449;28;20506;-84
2021/03/16 13:09:36;;;;;;;4.60;3.38;;;2.70;99.90;;;;;;4961420;28;20514;-85
2021/03/16 13:12:21;;;;;;;6.07;2.92;;;2.50;99.90;;;;;;4961244;28;20196;-84
2021/03/16 13:15:09;;;;;;;8.82;3.33;;;2.50;99.90;;;;;;4955088;28;20242;-85
2021/03/16 13:17:54;;;;;;;7.68;3.30;;;2.50;99.90;;;;;;4948847;28;20057;-85
2021/03/16 13:20:39;;;;;;;5.30;3.65;;;2.50;99.90;;;;;;4959183;28;20135;-86
2021/03/16 13:23:24;;;;;;;7.95;2.90;;;2.50;99.90;;;;;;4955410;28;20066;-85
2021/03/16 13:26:09;;;;;;;3.72;2.60;;;2.50;99.90;;;;;;4959552;28;20077;-85
2021/03/16 13:29:02;;;;;;;13.85;5.25;;;2.40;99.90;;;;;;4953146;28;20061;-85
2021/03/16 13:31:47;;;;;;;10.88;4.40;;;2.40;99.90;;;;;;4961640;28;20224;-85
2021/03/16 13:34:33;;;;;;;22.10;5.65;;;2.40;99.90;;;;;;4960335;28;20535;-85
2021/03/16 13:37:19;;;;;;;8.85;3.50;;;2.40;99.90;;;;;;4959291;28;20056;-85
2021/03/16 13:40:06;;;;;;;11.55;3.53;;;2.30;99.90;;;;;;4959607;28;20189;-86
2021/03/16 13:42:52;;;;;;;5.65;3.42;;;2.20;99.90;;;;;;4955981;28;20187;-85
2021/03/16 13:45:38;;;;;;;15.15;4.85;;;2.20;99.90;;;;;;4959530;28;20101;-86
2021/03/16 13:48:23;;;;;;;13.00;4.72;;;2.10;99.90;;;;;;4938724;28;20067;-85
2021/03/16 13:51:08;;;;;;;18.05;4.57;;;2.20;99.90;;;;;;4952431;28;20050;-86
2021/03/16 13:53:54;;;;;;;5.82;4.03;;;2.20;99.90;;;;;;4958107;28;20050;-86
2021/03/16 13:56:39;;;;;;;7.13;4.10;;;2.20;99.90;;;;;;4952466;28;20147;-85
2021/03/16 13:59:24;;;;;;;11.38;4.65;;;2.20;99.90;;;;;;4954730;28;20038;-85
2021/03/16 14:02:20;;;;;;;13.27;4.75;;;2.20;99.90;;;;;;4966450;28;20050;-85
2021/03/16 14:05:08;;;;;;;6.70;5.25;;;2.00;99.90;;;;;;4958432;28;20049;-85
2021/03/16 14:07:53;;;;;;;19.25;4.85;;;2.00;99.90;;;;;;4958417;28;20053;-85
2021/03/16 14:10:38;;;;;;;6.40;4.10;;;2.00;99.90;;;;;;4959876;28;20045;-85
2021/03/16 14:13:23;;;;;;;13.48;4.40;;;2.00;99.90;;;;;;4959123;28;20074;-85